メインページ
METAR-TAF:

METAR-TAF

空港 :

広島空港

広島, 日本

緯度: 34-26N, 経度: 132-55E, 海抜: 331m

現時点の気象観測

当レポートは32分前の08:00(UTC)に作成
西の風 8kt
気温 6°C
湿度 52%
気圧 1022 hPa
視程10km以上
高度3000ftの雲はほとんどない
高度4500ftの雲は散在している

METAR: RJOA 130800Z 27008KT 9999 FEW030 SCT045 06/M03 Q1022

時間: 17:32 (08:32 UTC)

予報

当レポートは3時間23分前の05:09(UTC)に作成
予報は13日の 06時(UTC)から 14日の 12時(UTC)まで有効
西の風 5kt
視程10km以上
高度2500ftの雲はほとんどない
高度4500ftの雲は散在している

TAF: RJOA 130509Z 1306/1412 28005KT 9999 FEW025 SCT045

4,000以上の空港の気象観測と天気予報(METAR報とTAF報)

利用可能な観測所は地図上に黄色い丸と赤い丸で示す。

丸の上にカーソルを重ねると観測所名を参照できる。

次にクリックすると気象観測と天気予報を参照できる。

マップの切り替え:黒色「×」印の緑ボタンをクリックして拡大、「-」印の緑ボタンをクリックして縮小、緑色の三角印をクリックして隣りの地図に切り替え


METAR-TAF: